JES3034 SABE-SAVC
Flight info
| Callsign | JES3034 |
|---|---|
| Flight time | 2h 20m |
| Altitude | 36000 |
| Route | PTA8 GBE UT694 IREMO UP664 GATUD GATUD2U |
| Aircraft | A21N/M-SDE2E3FGHIRWXY/LB1 |
Departure
| Time | 2026-05-04 20:45 |
|---|---|
| Airport | Aeroparque Jorge Newbery (SABE) |
Arrival
| Time | 2026-05-04 23:06 |
|---|---|
| Airport | General Enrique Mosconi International Airport (SAVC) |
| Time | Latitude | Longitude | Altitude | Speed | Heading |
|---|---|---|---|---|---|
| 2026-05-04 20:06 | -34.55532 | -58.41717 | 29 ft | 0 kts | 33° |
| 2026-05-04 20:36 | -34.55544 | -58.41726 | 28 ft | 4 kts | 30° |
| 2026-05-04 20:36 | -34.55568 | -58.41740 | 28 ft | 4 kts | 20° |
| 2026-05-04 20:37 | -34.55594 | -58.41749 | 28 ft | 4 kts | 7° |
| 2026-05-04 20:37 | -34.55620 | -58.41750 | 28 ft | 4 kts | 347° |
| 2026-05-04 20:37 | -34.55643 | -58.41737 | 28 ft | 3 kts | 308° |
| 2026-05-04 20:37 | -34.55645 | -58.41734 | 28 ft | 0 kts | 304° |
| 2026-05-04 20:40 | -34.55642 | -58.41739 | 28 ft | 3 kts | 303° |
| 2026-05-04 20:40 | -34.55623 | -58.41777 | 28 ft | 8 kts | 300° |
| 2026-05-04 20:40 | -34.55627 | -58.41846 | 28 ft | 11 kts | 228° |
| 2026-05-04 20:40 | -34.55676 | -58.41864 | 28 ft | 5 kts | 145° |
| 2026-05-04 20:41 | -34.55705 | -58.41815 | 28 ft | 10 kts | 124° |
| 2026-05-04 20:41 | -34.55747 | -58.41729 | 28 ft | 14 kts | 113° |
| 2026-05-04 20:41 | -34.55793 | -58.41615 | 28 ft | 17 kts | 116° |
| 2026-05-04 20:41 | -34.55852 | -58.41473 | 28 ft | 20 kts | 117° |
| 2026-05-04 20:42 | -34.55912 | -58.41330 | 28 ft | 17 kts | 118° |
| 2026-05-04 20:42 | -34.55987 | -58.41201 | 28 ft | 21 kts | 129° |
| 2026-05-04 20:42 | -34.56079 | -58.41051 | 28 ft | 24 kts | 127° |
| 2026-05-04 20:42 | -34.56166 | -58.40900 | 28 ft | 19 kts | 117° |
| 2026-05-04 20:43 | -34.56196 | -58.40783 | 28 ft | 15 kts | 126° |
| 2026-05-04 20:43 | -34.56264 | -58.40664 | 28 ft | 19 kts | 123° |
| 2026-05-04 20:43 | -34.56358 | -58.40532 | 28 ft | 22 kts | 135° |
| 2026-05-04 20:43 | -34.56428 | -58.40454 | 28 ft | 6 kts | 137° |
| 2026-05-04 20:44 | -34.56473 | -58.40404 | 28 ft | 11 kts | 139° |
| 2026-05-04 20:44 | -34.56546 | -58.40412 | 28 ft | 13 kts | 224° |
| 2026-05-04 20:44 | -34.56550 | -58.40454 | 28 ft | 5 kts | 297° |
| 2026-05-04 20:44 | -34.56539 | -58.40475 | 28 ft | 10 kts | 303° |
| 2026-05-04 20:45 | -34.56362 | -58.40789 | 29 ft | 79 kts | 305° |
| 2026-05-04 20:45 | -34.55924 | -58.41575 | 28 ft | 147 kts | 302° |
| 2026-05-04 20:45 | -34.55300 | -58.42692 | 394 ft | 167 kts | 305° |
| 2026-05-04 20:45 | -34.54607 | -58.43946 | 824 ft | 192 kts | 303° |
| 2026-05-04 20:46 | -34.53739 | -58.45262 | 1242 ft | 210 kts | 320° |
| 2026-05-04 20:46 | -34.52356 | -58.45962 | 1635 ft | 228 kts | 356° |
| 2026-05-04 20:46 | -34.50807 | -58.45418 | 2064 ft | 247 kts | 38° |
| 2026-05-04 20:46 | -34.49841 | -58.43662 | 2622 ft | 260 kts | 70° |
| 2026-05-04 20:47 | -34.49441 | -58.41488 | 3243 ft | 272 kts | 87° |
| 2026-05-04 20:47 | -34.49769 | -58.39194 | 3823 ft | 282 kts | 107° |
| 2026-05-04 20:47 | -34.50437 | -58.36942 | 4510 ft | 286 kts | 109° |
| 2026-05-04 20:47 | -34.51108 | -58.34647 | 5188 ft | 291 kts | 108° |
| 2026-05-04 20:48 | -34.51738 | -58.32293 | 5857 ft | 295 kts | 106° |
| 2026-05-04 20:48 | -34.52337 | -58.29892 | 6542 ft | 299 kts | 105° |
| 2026-05-04 20:48 | -34.52917 | -58.27462 | 7236 ft | 301 kts | 105° |
| 2026-05-04 20:48 | -34.53676 | -58.25092 | 7977 ft | 303 kts | 120° |
| 2026-05-04 20:49 | -34.54976 | -58.23105 | 8700 ft | 302 kts | 143° |
| 2026-05-04 20:49 | -34.56818 | -58.21965 | 9424 ft | 298 kts | 171° |
| 2026-05-04 20:49 | -34.58866 | -58.21915 | 10103 ft | 295 kts | 189° |
| 2026-05-04 20:49 | -34.60942 | -58.22290 | 10459 ft | 310 kts | 193° |
| 2026-05-04 20:50 | -34.63122 | -58.22769 | 10747 ft | 326 kts | 193° |
| 2026-05-04 20:50 | -34.64627 | -58.23103 | 10949 ft | 336 kts | 193° |
| 2026-05-04 20:50 | -34.67793 | -58.23789 | 11303 ft | 355 kts | 193° |
| 2026-05-04 20:50 | -34.69426 | -58.24137 | 11468 ft | 363 kts | 193° |
| 2026-05-04 20:51 | -34.71954 | -58.24671 | 11706 ft | 374 kts | 193° |
| 2026-05-04 20:51 | -34.74551 | -58.25215 | 12026 ft | 381 kts | 193° |
| 2026-05-04 20:51 | -34.77173 | -58.25762 | 12433 ft | 384 kts | 193° |
| 2026-05-04 20:51 | -34.79807 | -58.26311 | 12912 ft | 384 kts | 193° |
| 2026-05-04 20:52 | -34.82444 | -58.26862 | 13404 ft | 385 kts | 193° |
| 2026-05-04 20:52 | -34.85948 | -58.27594 | 13995 ft | 386 kts | 194° |
| 2026-05-04 20:52 | -34.87743 | -58.27970 | 14264 ft | 388 kts | 194° |
| 2026-05-04 20:52 | -34.90407 | -58.28528 | 14669 ft | 390 kts | 194° |
| 2026-05-04 20:53 | -34.93090 | -58.29091 | 15051 ft | 392 kts | 194° |
| 2026-05-04 20:53 | -34.95785 | -58.29657 | 15418 ft | 394 kts | 194° |
| 2026-05-04 20:53 | -34.98497 | -58.30226 | 15797 ft | 396 kts | 194° |
| 2026-05-04 20:53 | -35.01219 | -58.30798 | 16166 ft | 398 kts | 195° |
| 2026-05-04 20:54 | -35.03948 | -58.31371 | 16503 ft | 400 kts | 195° |
| 2026-05-04 20:54 | -35.06695 | -58.31949 | 16831 ft | 401 kts | 195° |
| 2026-05-04 20:54 | -35.09450 | -58.32529 | 17146 ft | 402 kts | 195° |
| 2026-05-04 20:54 | -35.12215 | -58.33112 | 17431 ft | 404 kts | 195° |
| 2026-05-04 20:55 | -35.14988 | -58.33696 | 17706 ft | 406 kts | 195° |
| 2026-05-04 20:55 | -35.17780 | -58.34285 | 17960 ft | 408 kts | 195° |
| 2026-05-04 20:55 | -35.20580 | -58.34877 | 18197 ft | 409 kts | 195° |
| 2026-05-04 20:55 | -35.23390 | -58.35470 | 18403 ft | 410 kts | 195° |
| 2026-05-04 20:56 | -35.26203 | -58.36064 | 18610 ft | 411 kts | 195° |
| 2026-05-04 20:56 | -35.29028 | -58.36661 | 18811 ft | 412 kts | 195° |
| 2026-05-04 20:56 | -35.31860 | -58.37261 | 19000 ft | 413 kts | 195° |
| 2026-05-04 20:56 | -35.34693 | -58.37861 | 19204 ft | 414 kts | 195° |
| 2026-05-04 20:57 | -35.37539 | -58.38464 | 19401 ft | 415 kts | 195° |
| 2026-05-04 20:57 | -35.40388 | -58.39068 | 19608 ft | 416 kts | 195° |
| 2026-05-04 20:57 | -35.43240 | -58.39674 | 19808 ft | 417 kts | 195° |
| 2026-05-04 20:57 | -35.46106 | -58.40282 | 20002 ft | 418 kts | 195° |
| 2026-05-04 20:58 | -35.48972 | -58.40892 | 20220 ft | 419 kts | 195° |
| 2026-05-04 20:58 | -35.51850 | -58.41504 | 20433 ft | 420 kts | 195° |
| 2026-05-04 20:58 | -35.54732 | -58.42118 | 20656 ft | 421 kts | 195° |
| 2026-05-04 20:58 | -35.57628 | -58.42735 | 20891 ft | 423 kts | 195° |
| 2026-05-04 20:59 | -35.60530 | -58.43354 | 21156 ft | 424 kts | 195° |
| 2026-05-04 20:59 | -35.63441 | -58.43975 | 21403 ft | 426 kts | 195° |
| 2026-05-04 20:59 | -35.66363 | -58.44600 | 21658 ft | 427 kts | 196° |
| 2026-05-04 20:59 | -35.69302 | -58.45228 | 21927 ft | 429 kts | 196° |
| 2026-05-04 21:00 | -35.72232 | -58.45900 | 22201 ft | 428 kts | 199° |
| 2026-05-04 21:00 | -35.75073 | -58.46945 | 22484 ft | 424 kts | 207° |
| 2026-05-04 21:00 | -35.77717 | -58.48489 | 22773 ft | 421 kts | 213° |
| 2026-05-04 21:00 | -35.80267 | -58.50275 | 23040 ft | 422 kts | 216° |
| 2026-05-04 21:01 | -35.82771 | -58.52169 | 23333 ft | 423 kts | 217° |
| 2026-05-04 21:01 | -35.85226 | -58.54092 | 23608 ft | 425 kts | 217° |
| 2026-05-04 21:01 | -35.87718 | -58.56061 | 23865 ft | 426 kts | 217° |
| 2026-05-04 21:01 | -35.90221 | -58.58033 | 24147 ft | 427 kts | 217° |
| 2026-05-04 21:02 | -35.92733 | -58.59999 | 24412 ft | 428 kts | 217° |
| 2026-05-04 21:02 | -35.95259 | -58.61963 | 24672 ft | 430 kts | 217° |
| 2026-05-04 21:02 | -35.97792 | -58.63925 | 24939 ft | 430 kts | 217° |
| 2026-05-04 21:02 | -36.00326 | -58.65882 | 25310 ft | 429 kts | 217° |
| 2026-05-04 21:03 | -36.02850 | -58.67828 | 25691 ft | 426 kts | 217° |
| 2026-05-04 21:03 | -36.05363 | -58.69767 | 26069 ft | 425 kts | 217° |
| 2026-05-04 21:03 | -36.07859 | -58.71696 | 26435 ft | 423 kts | 217° |
| 2026-05-04 21:03 | -36.10351 | -58.73624 | 26806 ft | 422 kts | 217° |
| 2026-05-04 21:04 | -36.12833 | -58.75547 | 27215 ft | 420 kts | 217° |
| 2026-05-04 21:04 | -36.15299 | -58.77459 | 27596 ft | 418 kts | 218° |
| 2026-05-04 21:04 | -36.17759 | -58.79369 | 27946 ft | 416 kts | 218° |
| 2026-05-04 21:04 | -36.20208 | -58.81271 | 28282 ft | 415 kts | 218° |
| 2026-05-04 21:05 | -36.22653 | -58.83173 | 28612 ft | 414 kts | 218° |
| 2026-05-04 21:05 | -36.25090 | -58.85068 | 28951 ft | 413 kts | 218° |
| 2026-05-04 21:05 | -36.27522 | -58.86962 | 29284 ft | 412 kts | 218° |
| 2026-05-04 21:05 | -36.29943 | -58.88849 | 29636 ft | 411 kts | 218° |
| 2026-05-04 21:06 | -36.32358 | -58.90732 | 29985 ft | 410 kts | 218° |
| 2026-05-04 21:06 | -36.34767 | -58.92612 | 30296 ft | 408 kts | 218° |
| 2026-05-04 21:06 | -36.37159 | -58.94478 | 30668 ft | 405 kts | 218° |
| 2026-05-04 21:06 | -36.39538 | -58.96335 | 31103 ft | 401 kts | 219° |
| 2026-05-04 21:07 | -36.41883 | -58.98167 | 31560 ft | 396 kts | 219° |
| 2026-05-04 21:07 | -36.44174 | -58.99957 | 31944 ft | 393 kts | 219° |
| 2026-05-04 21:07 | -36.46508 | -59.01785 | 32283 ft | 390 kts | 219° |
| 2026-05-04 21:07 | -36.48768 | -59.03557 | 32581 ft | 388 kts | 219° |
| 2026-05-04 21:08 | -36.51052 | -59.05351 | 32824 ft | 388 kts | 219° |
| 2026-05-04 21:08 | -36.53327 | -59.07139 | 33083 ft | 387 kts | 219° |
| 2026-05-04 21:08 | -36.55596 | -59.08923 | 33364 ft | 385 kts | 219° |
| 2026-05-04 21:08 | -36.57853 | -59.10697 | 33646 ft | 383 kts | 219° |
| 2026-05-04 21:09 | -36.60097 | -59.12461 | 33915 ft | 381 kts | 219° |
| 2026-05-04 21:09 | -36.62331 | -59.14220 | 34130 ft | 379 kts | 219° |
| 2026-05-04 21:09 | -36.64560 | -59.15976 | 34305 ft | 379 kts | 219° |
| 2026-05-04 21:09 | -36.66782 | -59.17729 | 34496 ft | 378 kts | 219° |
| 2026-05-04 21:10 | -36.69001 | -59.19480 | 34684 ft | 377 kts | 219° |
| 2026-05-04 21:10 | -36.71209 | -59.21222 | 34873 ft | 375 kts | 219° |
| 2026-05-04 21:10 | -36.73410 | -59.22961 | 35036 ft | 374 kts | 220° |
| 2026-05-04 21:10 | -36.75611 | -59.24702 | 35186 ft | 374 kts | 220° |
| 2026-05-04 21:11 | -36.77804 | -59.26437 | 35332 ft | 373 kts | 220° |
| 2026-05-04 21:11 | -36.79995 | -59.28171 | 35471 ft | 373 kts | 220° |
| 2026-05-04 21:11 | -36.82183 | -59.29904 | 35605 ft | 372 kts | 220° |
| 2026-05-04 21:11 | -36.84368 | -59.31636 | 35740 ft | 372 kts | 220° |
| 2026-05-04 21:12 | -36.86550 | -59.33367 | 35843 ft | 372 kts | 220° |
| 2026-05-04 21:12 | -36.88740 | -59.35107 | 35882 ft | 374 kts | 220° |
| 2026-05-04 21:12 | -36.93141 | -59.38606 | 35870 ft | 375 kts | 220° |
| 2026-05-04 21:13 | -36.97537 | -59.42101 | 35874 ft | 374 kts | 220° |
| 2026-05-04 21:13 | -37.01933 | -59.45601 | 35872 ft | 374 kts | 220° |
| 2026-05-04 21:14 | -37.06325 | -59.49105 | 35869 ft | 374 kts | 220° |
| 2026-05-04 21:14 | -37.10716 | -59.52613 | 35869 ft | 374 kts | 220° |
| 2026-05-04 21:15 | -37.15102 | -59.56122 | 35870 ft | 374 kts | 220° |
| 2026-05-04 21:15 | -37.19471 | -59.59666 | 35869 ft | 373 kts | 221° |
| 2026-05-04 21:16 | -37.23780 | -59.63295 | 35870 ft | 373 kts | 221° |
| 2026-05-04 21:16 | -37.28072 | -59.66946 | 35872 ft | 373 kts | 221° |
| 2026-05-04 21:17 | -37.32339 | -59.70572 | 35869 ft | 373 kts | 221° |
| 2026-05-04 21:17 | -37.36638 | -59.74221 | 35869 ft | 373 kts | 221° |
| 2026-05-04 21:18 | -37.40935 | -59.77870 | 35865 ft | 373 kts | 221° |
| 2026-05-04 21:18 | -37.45231 | -59.81524 | 35868 ft | 373 kts | 221° |
| 2026-05-04 21:19 | -37.49526 | -59.85181 | 35873 ft | 372 kts | 221° |
| 2026-05-04 21:19 | -37.53809 | -59.88833 | 35861 ft | 371 kts | 221° |
| 2026-05-04 21:20 | -37.58091 | -59.92491 | 35865 ft | 372 kts | 221° |
| 2026-05-04 21:20 | -37.62378 | -59.96159 | 35861 ft | 372 kts | 221° |
| 2026-05-04 21:21 | -37.66665 | -59.99831 | 35859 ft | 372 kts | 221° |
| 2026-05-04 21:21 | -37.70353 | -60.02994 | 35859 ft | 372 kts | 221° |
| 2026-05-04 21:22 | -37.74637 | -60.06673 | 35894 ft | 372 kts | 221° |
| 2026-05-04 21:22 | -37.78915 | -60.10351 | 35858 ft | 371 kts | 222° |
| 2026-05-04 21:23 | -37.83176 | -60.14020 | 35860 ft | 370 kts | 222° |
| 2026-05-04 21:23 | -37.87432 | -60.17691 | 35862 ft | 370 kts | 222° |
| 2026-05-04 21:24 | -37.91690 | -60.21370 | 35853 ft | 370 kts | 222° |
| 2026-05-04 21:24 | -37.95943 | -60.25049 | 35852 ft | 370 kts | 222° |
| 2026-05-04 21:25 | -38.00199 | -60.28736 | 35852 ft | 370 kts | 222° |
| 2026-05-04 21:25 | -38.04450 | -60.32422 | 35853 ft | 370 kts | 222° |
| 2026-05-04 21:26 | -38.08691 | -60.36106 | 35847 ft | 369 kts | 222° |
| 2026-05-04 21:26 | -38.12930 | -60.39793 | 35847 ft | 369 kts | 223° |
| 2026-05-04 21:27 | -38.17176 | -60.43466 | 35850 ft | 369 kts | 222° |
| 2026-05-04 21:27 | -38.21456 | -60.47097 | 35856 ft | 370 kts | 222° |
| 2026-05-04 21:28 | -38.25711 | -60.50694 | 35851 ft | 369 kts | 222° |
| 2026-05-04 21:28 | -38.29990 | -60.54322 | 35853 ft | 369 kts | 222° |
| 2026-05-04 21:29 | -38.34258 | -60.57951 | 35845 ft | 369 kts | 222° |
| 2026-05-04 21:29 | -38.38524 | -60.61585 | 35845 ft | 368 kts | 222° |
| 2026-05-04 21:30 | -38.42783 | -60.65220 | 35845 ft | 368 kts | 222° |
| 2026-05-04 21:30 | -38.46430 | -60.68335 | 35845 ft | 368 kts | 222° |
| 2026-05-04 21:31 | -38.52820 | -60.73804 | 35840 ft | 369 kts | 222° |
| 2026-05-04 21:32 | -38.57074 | -60.77451 | 35848 ft | 368 kts | 222° |
| 2026-05-04 21:32 | -38.61323 | -60.81098 | 35840 ft | 368 kts | 222° |
| 2026-05-04 21:33 | -38.65565 | -60.84745 | 35840 ft | 367 kts | 222° |
| 2026-05-04 21:33 | -38.69806 | -60.88397 | 35840 ft | 367 kts | 222° |
| 2026-05-04 21:34 | -38.74044 | -60.92052 | 35840 ft | 367 kts | 222° |
| 2026-05-04 21:34 | -38.78253 | -60.95687 | 35840 ft | 367 kts | 222° |
| 2026-05-04 21:35 | -38.82487 | -60.99348 | 35877 ft | 367 kts | 223° |
| 2026-05-04 21:35 | -38.86719 | -61.03013 | 35830 ft | 367 kts | 223° |
| 2026-05-04 21:36 | -38.90949 | -61.06682 | 35845 ft | 367 kts | 223° |
| 2026-05-04 21:36 | -38.95169 | -61.10348 | 35832 ft | 366 kts | 223° |
| 2026-05-04 21:37 | -38.98680 | -61.13402 | 35832 ft | 366 kts | 223° |
| 2026-05-04 21:37 | -39.02903 | -61.17079 | 35836 ft | 366 kts | 223° |
| 2026-05-04 21:38 | -39.07120 | -61.20758 | 35829 ft | 366 kts | 223° |
| 2026-05-04 21:38 | -39.11337 | -61.24441 | 35827 ft | 366 kts | 223° |
| 2026-05-04 21:39 | -39.15542 | -61.28118 | 35827 ft | 365 kts | 223° |
| 2026-05-04 21:39 | -39.19743 | -61.31799 | 35826 ft | 365 kts | 223° |
| 2026-05-04 21:40 | -39.23943 | -61.35485 | 35823 ft | 365 kts | 223° |
| 2026-05-04 21:40 | -39.28148 | -61.39181 | 35821 ft | 366 kts | 223° |
| 2026-05-04 21:41 | -39.32357 | -61.42884 | 35820 ft | 366 kts | 223° |
| 2026-05-04 21:41 | -39.36561 | -61.46587 | 35826 ft | 366 kts | 223° |
| 2026-05-04 21:42 | -39.40763 | -61.50295 | 35813 ft | 365 kts | 223° |
| 2026-05-04 21:42 | -39.44954 | -61.54000 | 35818 ft | 365 kts | 223° |
| 2026-05-04 21:43 | -39.49118 | -61.57686 | 35810 ft | 365 kts | 224° |
| 2026-05-04 21:43 | -39.53336 | -61.61426 | 35814 ft | 365 kts | 224° |
| 2026-05-04 21:44 | -39.57496 | -61.65119 | 35810 ft | 365 kts | 224° |
| 2026-05-04 21:44 | -39.61682 | -61.68841 | 35811 ft | 365 kts | 224° |
| 2026-05-04 21:45 | -39.65866 | -61.72566 | 35805 ft | 365 kts | 224° |
| 2026-05-04 21:45 | -39.70051 | -61.76299 | 35804 ft | 365 kts | 224° |
| 2026-05-04 21:46 | -39.74234 | -61.80035 | 35804 ft | 365 kts | 224° |
| 2026-05-04 21:46 | -39.78414 | -61.83774 | 35797 ft | 365 kts | 224° |
| 2026-05-04 21:47 | -39.82592 | -61.87516 | 35796 ft | 365 kts | 224° |
| 2026-05-04 21:47 | -39.86763 | -61.91278 | 35796 ft | 363 kts | 225° |
| 2026-05-04 21:48 | -39.90718 | -61.95296 | 35791 ft | 359 kts | 228° |
| 2026-05-04 21:48 | -39.94546 | -61.99454 | 35792 ft | 358 kts | 228° |
| 2026-05-04 21:49 | -39.98365 | -62.03612 | 35787 ft | 358 kts | 228° |
| 2026-05-04 21:49 | -40.02200 | -62.07752 | 35783 ft | 358 kts | 228° |
| 2026-05-04 21:50 | -40.06044 | -62.11884 | 35789 ft | 358 kts | 228° |
| 2026-05-04 21:50 | -40.09887 | -62.16018 | 35783 ft | 358 kts | 228° |
| 2026-05-04 21:51 | -40.13727 | -62.20154 | 35783 ft | 358 kts | 228° |
| 2026-05-04 21:51 | -40.17592 | -62.24333 | 35794 ft | 364 kts | 228° |
| 2026-05-04 21:52 | -40.21525 | -62.28591 | 35783 ft | 369 kts | 228° |
| 2026-05-04 21:52 | -40.25490 | -62.32881 | 35777 ft | 370 kts | 228° |
| 2026-05-04 21:53 | -40.29452 | -62.37169 | 35776 ft | 369 kts | 228° |
| 2026-05-04 21:53 | -40.33377 | -62.41431 | 35779 ft | 369 kts | 228° |
| 2026-05-04 21:54 | -40.37328 | -62.45731 | 35778 ft | 369 kts | 228° |
| 2026-05-04 21:54 | -40.41275 | -62.50033 | 35784 ft | 369 kts | 228° |
| 2026-05-04 21:55 | -40.45208 | -62.54322 | 35774 ft | 366 kts | 228° |
| 2026-05-04 21:55 | -40.49110 | -62.58585 | 35774 ft | 364 kts | 228° |
| 2026-05-04 21:56 | -40.53002 | -62.62848 | 35771 ft | 364 kts | 228° |
| 2026-05-04 21:56 | -40.56892 | -62.67117 | 35772 ft | 364 kts | 228° |
| 2026-05-04 21:57 | -40.60782 | -62.71391 | 35775 ft | 364 kts | 228° |
| 2026-05-04 21:57 | -40.64668 | -62.75666 | 35774 ft | 364 kts | 228° |
| 2026-05-04 21:58 | -40.68557 | -62.79950 | 35769 ft | 364 kts | 228° |
| 2026-05-04 21:58 | -40.72438 | -62.84230 | 35775 ft | 362 kts | 229° |
| 2026-05-04 21:59 | -40.76295 | -62.88493 | 35771 ft | 362 kts | 229° |
| 2026-05-04 21:59 | -40.80150 | -62.92762 | 35774 ft | 362 kts | 229° |
| 2026-05-04 22:00 | -40.84003 | -62.97035 | 35770 ft | 362 kts | 229° |
| 2026-05-04 22:00 | -40.87945 | -63.01136 | 35774 ft | 366 kts | 226° |
| 2026-05-04 22:01 | -40.92105 | -63.05037 | 35776 ft | 367 kts | 225° |
| 2026-05-04 22:01 | -40.96297 | -63.08895 | 35798 ft | 367 kts | 225° |
| 2026-05-04 22:02 | -41.00483 | -63.12739 | 35774 ft | 365 kts | 225° |
| 2026-05-04 22:02 | -41.04645 | -63.16579 | 35770 ft | 364 kts | 225° |
| 2026-05-04 22:03 | -41.08797 | -63.20425 | 35765 ft | 364 kts | 226° |
| 2026-05-04 22:03 | -41.12951 | -63.24279 | 35762 ft | 364 kts | 226° |
| 2026-05-04 22:04 | -41.17103 | -63.28137 | 35755 ft | 364 kts | 226° |
| 2026-05-04 22:04 | -41.21254 | -63.31998 | 35781 ft | 364 kts | 226° |
| 2026-05-04 22:05 | -41.25396 | -63.35857 | 35757 ft | 364 kts | 226° |
| 2026-05-04 22:05 | -41.29534 | -63.39718 | 35746 ft | 363 kts | 226° |
| 2026-05-04 22:06 | -41.33670 | -63.43585 | 35776 ft | 363 kts | 226° |
| 2026-05-04 22:06 | -41.37806 | -63.47457 | 35746 ft | 363 kts | 226° |
| 2026-05-04 22:07 | -41.41941 | -63.51334 | 35741 ft | 363 kts | 226° |
| 2026-05-04 22:07 | -41.46070 | -63.55212 | 35784 ft | 363 kts | 226° |
| 2026-05-04 22:08 | -41.50163 | -63.59061 | 35740 ft | 362 kts | 226° |
| 2026-05-04 22:08 | -41.54271 | -63.62931 | 35730 ft | 361 kts | 226° |
| 2026-05-04 22:09 | -41.58376 | -63.66811 | 35813 ft | 362 kts | 226° |
| 2026-05-04 22:09 | -41.60426 | -63.68750 | 35947 ft | 361 kts | 226° |
| 2026-05-04 22:09 | -41.62474 | -63.70688 | 36071 ft | 360 kts | 226° |
| 2026-05-04 22:09 | -41.64517 | -63.72621 | 36189 ft | 360 kts | 226° |
| 2026-05-04 22:10 | -41.66557 | -63.74552 | 36300 ft | 359 kts | 226° |
| 2026-05-04 22:10 | -41.70637 | -63.78422 | 36522 ft | 359 kts | 226° |
| 2026-05-04 22:10 | -41.72670 | -63.80351 | 36667 ft | 357 kts | 226° |
| 2026-05-04 22:11 | -41.74696 | -63.82274 | 36794 ft | 356 kts | 226° |
| 2026-05-04 22:11 | -41.78739 | -63.86120 | 36950 ft | 356 kts | 226° |
| 2026-05-04 22:12 | -41.82772 | -63.89964 | 37109 ft | 356 kts | 226° |
| 2026-05-04 22:12 | -41.86802 | -63.93810 | 37254 ft | 355 kts | 226° |
| 2026-05-04 22:13 | -41.90826 | -63.97656 | 37384 ft | 355 kts | 226° |
| 2026-05-04 22:13 | -41.94844 | -64.01501 | 37514 ft | 354 kts | 226° |
| 2026-05-04 22:14 | -41.98858 | -64.05350 | 37625 ft | 355 kts | 226° |
| 2026-05-04 22:14 | -42.02901 | -64.09240 | 37490 ft | 360 kts | 226° |
| 2026-05-04 22:15 | -42.06989 | -64.13174 | 37566 ft | 361 kts | 226° |
| 2026-05-04 22:15 | -42.08994 | -64.15097 | 37768 ft | 357 kts | 226° |
| 2026-05-04 22:15 | -42.11011 | -64.17034 | 37892 ft | 356 kts | 226° |
| 2026-05-04 22:16 | -42.15025 | -64.20905 | 37990 ft | 355 kts | 226° |
| 2026-05-04 22:16 | -42.19034 | -64.24783 | 38142 ft | 353 kts | 226° |
| 2026-05-04 22:17 | -42.23027 | -64.28649 | 38225 ft | 354 kts | 227° |
| 2026-05-04 22:17 | -42.27029 | -64.32532 | 38251 ft | 354 kts | 227° |
| 2026-05-04 22:18 | -42.31036 | -64.36425 | 38267 ft | 355 kts | 226° |
| 2026-05-04 22:18 | -42.35063 | -64.40344 | 38167 ft | 359 kts | 226° |
| 2026-05-04 22:19 | -42.39129 | -64.44308 | 38211 ft | 359 kts | 226° |
| 2026-05-04 22:19 | -42.41144 | -64.46264 | 38438 ft | 354 kts | 226° |
| 2026-05-04 22:19 | -42.43141 | -64.48206 | 38480 ft | 354 kts | 226° |
| 2026-05-04 22:20 | -42.47153 | -64.52132 | 38375 ft | 359 kts | 227° |
| 2026-05-04 22:20 | -42.49181 | -64.54126 | 38260 ft | 362 kts | 227° |
| 2026-05-04 22:20 | -42.51220 | -64.56127 | 38274 ft | 362 kts | 227° |
| 2026-05-04 22:20 | -42.53252 | -64.58114 | 38426 ft | 359 kts | 227° |
| 2026-05-04 22:21 | -42.55271 | -64.60086 | 38501 ft | 357 kts | 227° |
| 2026-05-04 22:21 | -42.59271 | -64.64011 | 38565 ft | 356 kts | 227° |
| 2026-05-04 22:22 | -42.62622 | -64.67305 | 38606 ft | 355 kts | 227° |
| 2026-05-04 22:22 | -42.67328 | -64.71954 | 38478 ft | 360 kts | 227° |
| 2026-05-04 22:23 | -42.71353 | -64.75925 | 38592 ft | 358 kts | 227° |
| 2026-05-04 22:23 | -42.75379 | -64.79897 | 38641 ft | 357 kts | 227° |
| 2026-05-04 22:24 | -42.79397 | -64.83875 | 38668 ft | 357 kts | 227° |
| 2026-05-04 22:24 | -42.83410 | -64.87857 | 38683 ft | 357 kts | 227° |
| 2026-05-04 22:25 | -42.86749 | -64.91174 | 38686 ft | 357 kts | 227° |
| 2026-05-04 22:25 | -42.90768 | -64.95174 | 38680 ft | 358 kts | 227° |
| 2026-05-04 22:26 | -42.94786 | -64.99178 | 38683 ft | 358 kts | 227° |
| 2026-05-04 22:26 | -42.98806 | -65.03190 | 38677 ft | 358 kts | 228° |
| 2026-05-04 22:27 | -43.02831 | -65.07213 | 38689 ft | 358 kts | 228° |
| 2026-05-04 22:27 | -43.06854 | -65.11241 | 38687 ft | 358 kts | 228° |
| 2026-05-04 22:28 | -43.10874 | -65.15273 | 38689 ft | 359 kts | 228° |
| 2026-05-04 22:28 | -43.14899 | -65.19317 | 38689 ft | 359 kts | 228° |
| 2026-05-04 22:29 | -43.18926 | -65.23367 | 38684 ft | 360 kts | 227° |
| 2026-05-04 22:29 | -43.23235 | -65.27054 | 38697 ft | 368 kts | 224° |
| 2026-05-04 22:30 | -43.27675 | -65.30582 | 38688 ft | 369 kts | 223° |
| 2026-05-04 22:30 | -43.32135 | -65.34074 | 38690 ft | 369 kts | 223° |
| 2026-05-04 22:31 | -43.36590 | -65.37574 | 38686 ft | 369 kts | 223° |
| 2026-05-04 22:31 | -43.41039 | -65.41085 | 38699 ft | 368 kts | 223° |
| 2026-05-04 22:32 | -43.45484 | -65.44605 | 38680 ft | 369 kts | 223° |
| 2026-05-04 22:32 | -43.49897 | -65.48107 | 38678 ft | 368 kts | 223° |
| 2026-05-04 22:33 | -43.54334 | -65.51633 | 38669 ft | 368 kts | 223° |
| 2026-05-04 22:33 | -43.58762 | -65.55160 | 38665 ft | 367 kts | 223° |
| 2026-05-04 22:34 | -43.63181 | -65.58684 | 38670 ft | 366 kts | 223° |
| 2026-05-04 22:34 | -43.67591 | -65.62207 | 38669 ft | 366 kts | 223° |
| 2026-05-04 22:35 | -43.71999 | -65.65734 | 38670 ft | 366 kts | 223° |
| 2026-05-04 22:35 | -43.76419 | -65.69282 | 38047 ft | 371 kts | 223° |
| 2026-05-04 22:35 | -43.78667 | -65.71092 | 37134 ft | 376 kts | 223° |
| 2026-05-04 22:36 | -43.80934 | -65.72914 | 36399 ft | 377 kts | 223° |
| 2026-05-04 22:36 | -43.83199 | -65.74729 | 35775 ft | 375 kts | 223° |
| 2026-05-04 22:36 | -43.85448 | -65.76532 | 35179 ft | 372 kts | 223° |
| 2026-05-04 22:36 | -43.87674 | -65.78319 | 34630 ft | 368 kts | 223° |
| 2026-05-04 22:37 | -43.89884 | -65.80098 | 34000 ft | 367 kts | 223° |
| 2026-05-04 22:37 | -43.92087 | -65.81875 | 33364 ft | 365 kts | 223° |
| 2026-05-04 22:37 | -43.94274 | -65.83639 | 32589 ft | 364 kts | 223° |
| 2026-05-04 22:37 | -43.96475 | -65.85425 | 31550 ft | 371 kts | 223° |
| 2026-05-04 22:38 | -43.98731 | -65.87260 | 30436 ft | 381 kts | 223° |
| 2026-05-04 22:38 | -44.01086 | -65.89055 | 29351 ft | 391 kts | 221° |
| 2026-05-04 22:38 | -44.03513 | -65.90823 | 28150 ft | 398 kts | 220° |
| 2026-05-04 22:38 | -44.05986 | -65.92609 | 26953 ft | 404 kts | 220° |
| 2026-05-04 22:39 | -44.08499 | -65.94425 | 25776 ft | 410 kts | 219° |
| 2026-05-04 22:39 | -44.11055 | -65.96274 | 24673 ft | 416 kts | 219° |
| 2026-05-04 22:39 | -44.13608 | -65.98114 | 24166 ft | 407 kts | 219° |
| 2026-05-04 22:39 | -44.16102 | -65.99907 | 23976 ft | 406 kts | 219° |
| 2026-05-04 22:40 | -44.18635 | -66.01759 | 23746 ft | 415 kts | 219° |
| 2026-05-04 22:40 | -44.21167 | -66.03605 | 23517 ft | 417 kts | 218° |
| 2026-05-04 22:40 | -44.23739 | -66.05475 | 23282 ft | 417 kts | 218° |
| 2026-05-04 22:40 | -44.26340 | -66.07368 | 23010 ft | 416 kts | 218° |
| 2026-05-04 22:41 | -44.28866 | -66.09208 | 22736 ft | 414 kts | 218° |
| 2026-05-04 22:41 | -44.31449 | -66.11093 | 22452 ft | 413 kts | 218° |
| 2026-05-04 22:41 | -44.33993 | -66.12955 | 22181 ft | 412 kts | 218° |
| 2026-05-04 22:41 | -44.36488 | -66.14783 | 21912 ft | 410 kts | 218° |
| 2026-05-04 22:42 | -44.39015 | -66.16636 | 21668 ft | 409 kts | 218° |
| 2026-05-04 22:42 | -44.41534 | -66.18484 | 21399 ft | 408 kts | 217° |
| 2026-05-04 22:42 | -44.44045 | -66.20329 | 21135 ft | 407 kts | 217° |
| 2026-05-04 22:42 | -44.46541 | -66.22163 | 21067 ft | 405 kts | 217° |
| 2026-05-04 22:43 | -44.49037 | -66.24000 | 21070 ft | 404 kts | 217° |
| 2026-05-04 22:43 | -44.51524 | -66.25832 | 21070 ft | 404 kts | 217° |
| 2026-05-04 22:43 | -44.54013 | -66.27669 | 21064 ft | 404 kts | 217° |
| 2026-05-04 22:43 | -44.56494 | -66.29501 | 21064 ft | 404 kts | 217° |
| 2026-05-04 22:44 | -44.58980 | -66.31335 | 21065 ft | 404 kts | 217° |
| 2026-05-04 22:44 | -44.61463 | -66.33169 | 21065 ft | 404 kts | 217° |
| 2026-05-04 22:44 | -44.63950 | -66.35008 | 21066 ft | 404 kts | 217° |
| 2026-05-04 22:44 | -44.66439 | -66.36851 | 21066 ft | 405 kts | 217° |
| 2026-05-04 22:45 | -44.68934 | -66.38700 | 21087 ft | 405 kts | 217° |
| 2026-05-04 22:45 | -44.73918 | -66.42400 | 21082 ft | 405 kts | 217° |
| 2026-05-04 22:45 | -44.76410 | -66.44253 | 21082 ft | 405 kts | 217° |
| 2026-05-04 22:46 | -44.78912 | -66.46116 | 20892 ft | 408 kts | 217° |
| 2026-05-04 22:46 | -44.81415 | -66.47981 | 20055 ft | 407 kts | 216° |
| 2026-05-04 22:46 | -44.83922 | -66.49851 | 19013 ft | 408 kts | 215° |
| 2026-05-04 22:46 | -44.86431 | -66.51724 | 18107 ft | 407 kts | 214° |
| 2026-05-04 22:47 | -44.88923 | -66.53583 | 17209 ft | 403 kts | 214° |
| 2026-05-04 22:47 | -44.91400 | -66.55435 | 16279 ft | 401 kts | 214° |
| 2026-05-04 22:47 | -44.93846 | -66.57264 | 15447 ft | 396 kts | 213° |
| 2026-05-04 22:47 | -44.96271 | -66.59080 | 14701 ft | 390 kts | 212° |
| 2026-05-04 22:48 | -44.98645 | -66.60858 | 14055 ft | 383 kts | 212° |
| 2026-05-04 22:48 | -45.00967 | -66.62600 | 13511 ft | 373 kts | 212° |
| 2026-05-04 22:48 | -45.03233 | -66.64301 | 12966 ft | 365 kts | 212° |
| 2026-05-04 22:48 | -45.05446 | -66.65965 | 12481 ft | 356 kts | 212° |
| 2026-05-04 22:49 | -45.07609 | -66.67593 | 11990 ft | 348 kts | 212° |
| 2026-05-04 22:49 | -45.09722 | -66.69187 | 11510 ft | 341 kts | 212° |
| 2026-05-04 22:49 | -45.11788 | -66.70745 | 11220 ft | 329 kts | 212° |
| 2026-05-04 22:49 | -45.13725 | -66.72202 | 11127 ft | 310 kts | 212° |
| 2026-05-04 22:50 | -45.15575 | -66.73596 | 11036 ft | 293 kts | 212° |
| 2026-05-04 22:50 | -45.17330 | -66.74921 | 10903 ft | 278 kts | 212° |
| 2026-05-04 22:50 | -45.18996 | -66.76181 | 10787 ft | 265 kts | 213° |
| 2026-05-04 22:50 | -45.20582 | -66.77383 | 10661 ft | 253 kts | 213° |
| 2026-05-04 22:51 | -45.22104 | -66.78537 | 10532 ft | 243 kts | 213° |
| 2026-05-04 22:51 | -45.23577 | -66.79657 | 10415 ft | 240 kts | 213° |
| 2026-05-04 22:51 | -45.25050 | -66.80781 | 10343 ft | 241 kts | 213° |
| 2026-05-04 22:51 | -45.26525 | -66.81901 | 10234 ft | 240 kts | 212° |
| 2026-05-04 22:52 | -45.28002 | -66.83016 | 9995 ft | 240 kts | 212° |
| 2026-05-04 22:52 | -45.29471 | -66.84127 | 9732 ft | 239 kts | 212° |
| 2026-05-04 22:52 | -45.30931 | -66.85234 | 9475 ft | 238 kts | 212° |
| 2026-05-04 22:52 | -45.32386 | -66.86341 | 9215 ft | 237 kts | 212° |
| 2026-05-04 22:53 | -45.33835 | -66.87444 | 8969 ft | 236 kts | 212° |
| 2026-05-04 22:53 | -45.35280 | -66.88544 | 8724 ft | 235 kts | 212° |
| 2026-05-04 22:53 | -45.36720 | -66.89641 | 8481 ft | 234 kts | 212° |
| 2026-05-04 22:53 | -45.38153 | -66.90732 | 8240 ft | 233 kts | 212° |
| 2026-05-04 22:54 | -45.39578 | -66.91820 | 7986 ft | 232 kts | 212° |
| 2026-05-04 22:54 | -45.40999 | -66.92904 | 7752 ft | 231 kts | 212° |
| 2026-05-04 22:54 | -45.42412 | -66.93984 | 7521 ft | 230 kts | 212° |
| 2026-05-04 22:54 | -45.43825 | -66.95065 | 7262 ft | 230 kts | 211° |
| 2026-05-04 22:55 | -45.45237 | -66.96144 | 7020 ft | 230 kts | 211° |
| 2026-05-04 22:55 | -45.46643 | -66.97220 | 6789 ft | 229 kts | 211° |
| 2026-05-04 22:55 | -45.48045 | -66.98293 | 6543 ft | 229 kts | 211° |
| 2026-05-04 22:55 | -45.49448 | -66.99368 | 6310 ft | 228 kts | 211° |
| 2026-05-04 22:56 | -45.50849 | -67.00441 | 6067 ft | 228 kts | 211° |
| 2026-05-04 22:56 | -45.52243 | -67.01510 | 5796 ft | 228 kts | 211° |
| 2026-05-04 22:56 | -45.53636 | -67.02578 | 5566 ft | 227 kts | 211° |
| 2026-05-04 22:56 | -45.55021 | -67.03642 | 5332 ft | 226 kts | 211° |
| 2026-05-04 22:57 | -45.56401 | -67.04701 | 5083 ft | 224 kts | 211° |
| 2026-05-04 22:57 | -45.57767 | -67.05750 | 4845 ft | 223 kts | 211° |
| 2026-05-04 22:57 | -45.59109 | -67.06788 | 4608 ft | 222 kts | 212° |
| 2026-05-04 22:57 | -45.60463 | -67.07848 | 4400 ft | 224 kts | 213° |
| 2026-05-04 22:58 | -45.61873 | -67.08949 | 4286 ft | 233 kts | 212° |
| 2026-05-04 22:58 | -45.63263 | -67.10017 | 4133 ft | 220 kts | 212° |
| 2026-05-04 22:58 | -45.64594 | -67.11033 | 4005 ft | 215 kts | 213° |
| 2026-05-04 22:58 | -45.65916 | -67.12049 | 3994 ft | 217 kts | 213° |
| 2026-05-04 22:59 | -45.67242 | -67.13070 | 3901 ft | 216 kts | 213° |
| 2026-05-04 22:59 | -45.68559 | -67.14085 | 3785 ft | 215 kts | 213° |
| 2026-05-04 22:59 | -45.69830 | -67.15062 | 3685 ft | 200 kts | 213° |
| 2026-05-04 22:59 | -45.71042 | -67.15994 | 3565 ft | 197 kts | 213° |
| 2026-05-04 23:00 | -45.72250 | -67.16929 | 3448 ft | 199 kts | 213° |
| 2026-05-04 23:00 | -45.73466 | -67.17875 | 3339 ft | 197 kts | 214° |
| 2026-05-04 23:00 | -45.74496 | -67.18976 | 3219 ft | 174 kts | 231° |
| 2026-05-04 23:00 | -45.75049 | -67.20427 | 2845 ft | 163 kts | 252° |
| 2026-05-04 23:01 | -45.75303 | -67.21970 | 2562 ft | 155 kts | 257° |
| 2026-05-04 23:01 | -45.75487 | -67.23412 | 2442 ft | 138 kts | 258° |
| 2026-05-04 23:01 | -45.75643 | -67.24674 | 2307 ft | 121 kts | 258° |
| 2026-05-04 23:01 | -45.75787 | -67.25800 | 2061 ft | 110 kts | 257° |
| 2026-05-04 23:02 | -45.75929 | -67.26888 | 1943 ft | 114 kts | 257° |
| 2026-05-04 23:02 | -45.76083 | -67.28053 | 2006 ft | 124 kts | 257° |
| 2026-05-04 23:02 | -45.76245 | -67.29281 | 1990 ft | 121 kts | 257° |
| 2026-05-04 23:02 | -45.76390 | -67.30394 | 1980 ft | 110 kts | 257° |
| 2026-05-04 23:03 | -45.76531 | -67.31463 | 1998 ft | 109 kts | 257° |
| 2026-05-04 23:03 | -45.76672 | -67.32525 | 1998 ft | 108 kts | 258° |
| 2026-05-04 23:03 | -45.76817 | -67.33603 | 1789 ft | 110 kts | 258° |
| 2026-05-04 23:03 | -45.76975 | -67.34656 | 1585 ft | 107 kts | 258° |
| 2026-05-04 23:04 | -45.77117 | -67.35710 | 1510 ft | 109 kts | 259° |
| 2026-05-04 23:04 | -45.77256 | -67.36780 | 1301 ft | 109 kts | 258° |
| 2026-05-04 23:04 | -45.77402 | -67.37847 | 1174 ft | 111 kts | 258° |
| 2026-05-04 23:04 | -45.77533 | -67.38952 | 1028 ft | 113 kts | 260° |
| 2026-05-04 23:05 | -45.77673 | -67.40067 | 800 ft | 116 kts | 260° |
| 2026-05-04 23:05 | -45.77835 | -67.41217 | 702 ft | 119 kts | 260° |
| 2026-05-04 23:05 | -45.77989 | -67.42388 | 575 ft | 122 kts | 261° |
| 2026-05-04 23:05 | -45.78154 | -67.43610 | 418 ft | 126 kts | 263° |
| 2026-05-04 23:06 | -45.78298 | -67.44853 | 239 ft | 128 kts | 260° |
| 2026-05-04 23:06 | -45.78446 | -67.45992 | 201 ft | 103 kts | 259° |
| 2026-05-04 23:06 | -45.78550 | -67.46795 | 201 ft | 42 kts | 258° |
| 2026-05-04 23:06 | -45.78598 | -67.47154 | 200 ft | 31 kts | 255° |
| 2026-05-04 23:07 | -45.78631 | -67.47317 | 206 ft | 6 kts | 233° |
| 2026-05-04 23:07 | -45.78649 | -67.47322 | 203 ft | 4 kts | 171° |
| 2026-05-04 23:07 | -45.78694 | -67.47301 | 197 ft | 9 kts | 162° |
| 2026-05-04 23:07 | -45.78768 | -67.47265 | 211 ft | 14 kts | 161° |
| 2026-05-04 23:08 | -45.78844 | -67.47229 | 206 ft | 4 kts | 163° |
| 2026-05-04 23:08 | -45.78893 | -67.47205 | 208 ft | 10 kts | 156° |
| 2026-05-04 23:08 | -45.78919 | -67.47102 | 199 ft | 14 kts | 89° |
| 2026-05-04 23:08 | -45.78917 | -67.46985 | 199 ft | 13 kts | 88° |
| 2026-05-04 23:09 | -45.78913 | -67.46882 | 208 ft | 8 kts | 85° |
| 2026-05-04 23:09 | -45.78915 | -67.46844 | 207 ft | 1 kts | 132° |
| 2026-05-04 23:09 | -45.78921 | -67.46844 | 199 ft | 1 kts | 184° |
| 2026-05-04 23:09 | -45.78929 | -67.46856 | 211 ft | 4 kts | 225° |
| 2026-05-04 23:10 | -45.78943 | -67.46876 | 204 ft | 1 kts | 225° |
| 2026-05-04 23:10 | -45.78948 | -67.46884 | 211 ft | 0 kts | 226° |